Time;durP1;ratioP1;P1;durP2;ratioP2;P2;SDS_P1;SDS_P2;PMS_P1;PMS_P2;Temp;Humidity;BMP_temperature;BMP_pressure;BME280_temperature;BME280_humidity;BME280_pressure;Samples;Min_cycle;Max_cycle;Signal;HPM_P1;HPM_P2
2022/02/17 00:00:54;;;;;;;10.05;2.40;;;12.00;91.50;;;;;;5113846;28;20063;-75
2022/02/17 00:03:20;;;;;;;10.95;2.10;;;12.00;91.40;;;;;;5095131;28;20041;-76
2022/02/17 00:05:46;;;;;;;10.20;2.08;;;12.00;91.30;;;;;;5078570;28;20047;-75
2022/02/17 00:08:12;;;;;;;10.27;2.35;;;12.10;91.60;;;;;;5126280;28;20099;-75
2022/02/17 00:10:38;;;;;;;8.50;2.10;;;12.10;91.30;;;;;;5122634;28;20091;-76
2022/02/17 00:13:04;;;;;;;5.55;1.88;;;12.10;91.20;;;;;;5106804;28;20070;-75
2022/02/17 00:15:32;;;;;;;7.97;2.03;;;12.20;91.20;;;;;;5080097;28;20099;-76
2022/02/17 00:17:58;;;;;;;8.02;2.28;;;12.10;91.10;;;;;;5095426;28;20052;-75
2022/02/17 00:20:25;;;;;;;9.32;2.30;;;12.20;91.10;;;;;;5098926;28;20366;-76
2022/02/17 00:22:51;;;;;;;9.02;2.47;;;12.20;91.00;;;;;;5060830;28;20130;-77
2022/02/17 00:25:20;;;;;;;9.35;2.33;;;12.20;90.90;;;;;;5062076;28;20141;-78
2022/02/17 00:27:46;;;;;;;9.25;2.10;;;12.20;90.80;;;;;;5096719;28;20079;-75
2022/02/17 00:30:12;;;;;;;7.55;1.98;;;12.20;90.70;;;;;;5061275;28;20124;-75
2022/02/17 00:32:38;;;;;;;7.13;2.17;;;12.10;90.70;;;;;;5075914;28;20042;-75
2022/02/17 00:35:06;;;;;;;9.15;2.20;;;12.00;90.70;;;;;;5077922;28;20114;-76
2022/02/17 00:37:32;;;;;;;9.07;2.35;;;12.00;90.70;;;;;;5077780;28;20143;-74
2022/02/17 00:39:58;;;;;;;7.32;2.03;;;12.00;90.70;;;;;;5094643;28;20036;-75
2022/02/17 00:42:24;;;;;;;6.85;1.73;;;12.00;90.70;;;;;;5077780;28;20100;-75
2022/02/17 00:44:52;;;;;;;6.00;1.67;;;11.90;90.70;;;;;;5112877;28;20080;-75
2022/02/17 00:47:18;;;;;;;8.45;2.03;;;11.80;90.60;;;;;;5077707;28;20134;-75
2022/02/17 00:49:44;;;;;;;6.45;1.60;;;11.90;90.60;;;;;;5049810;28;20044;-75
2022/02/17 00:52:10;;;;;;;5.80;1.77;;;11.70;90.50;;;;;;5033248;28;20036;-76
2022/02/17 00:54:36;;;;;;;8.57;2.10;;;11.80;90.60;;;;;;5033294;28;20057;-76
2022/02/17 00:57:02;;;;;;;7.53;2.05;;;11.80;90.80;;;;;;5016673;28;20045;-76
2022/02/17 00:59:28;;;;;;;8.25;2.17;;;11.70;90.40;;;;;;5016698;28;20041;-75
2022/02/17 01:01:55;;;;;;;7.90;2.30;;;11.70;90.40;;;;;;5016724;28;20144;-76
2022/02/17 01:04:21;;;;;;;8.48;1.77;;;11.70;90.40;;;;;;5016764;28;20099;-76
2022/02/17 01:06:47;;;;;;;9.85;1.98;;;11.70;90.40;;;;;;5016615;28;20090;-76
2022/02/17 01:09:13;;;;;;;5.45;1.70;;;11.70;90.40;;;;;;5000347;28;20045;-76
2022/02/17 01:11:39;;;;;;;12.60;2.60;;;11.60;90.40;;;;;;5034447;28;20037;-76
2022/02/17 01:14:06;;;;;;;12.70;2.63;;;11.60;90.30;;;;;;5033948;28;20537;-75
2022/02/17 01:16:32;;;;;;;11.25;2.72;;;11.30;90.50;;;;;;5016962;28;20490;-76
2022/02/17 01:18:58;;;;;;;6.55;1.98;;;11.00;90.90;;;;;;5016942;28;20052;-76
2022/02/17 01:21:24;;;;;;;5.07;1.40;;;10.70;90.70;;;;;;5081660;28;20048;-75
2022/02/17 01:23:50;;;;;;;7.25;1.15;;;10.10;90.90;;;;;;5076578;28;20068;-76
2022/02/17 01:26:16;;;;;;;3.90;1.08;;;9.60;91.00;;;;;;5112707;28;20039;-75
2022/02/17 01:28:42;;;;;;;5.97;1.20;;;9.40;91.30;;;;;;5075369;28;20073;-76
2022/02/17 01:31:07;;;;;;;6.13;1.25;;;9.30;91.60;;;;;;5112298;28;20051;-76
2022/02/17 01:33:34;;;;;;;8.77;1.67;;;9.40;91.60;;;;;;5093728;28;20043;-76
2022/02/17 01:36:06;;;;;;;7.35;1.45;;;9.50;91.60;;;;;;5077631;28;20039;-76
2022/02/17 01:38:34;;;;;;;10.20;1.75;;;9.50;91.50;;;;;;5112437;28;20047;-76
2022/02/17 01:41:00;;;;;;;6.40;1.67;;;9.70;91.40;;;;;;5111919;28;20063;-76
2022/02/17 01:43:26;;;;;;;9.75;1.77;;;9.80;91.30;;;;;;5111969;28;20078;-76
2022/02/17 01:45:52;;;;;;;6.45;1.52;;;9.90;91.20;;;;;;5096985;28;20042;-76
2022/02/17 01:48:17;;;;;;;10.80;2.20;;;9.90;91.00;;;;;;5115630;28;20039;-75
2022/02/17 01:50:43;;;;;;;10.93;2.20;;;10.00;90.80;;;;;;5097151;28;20088;-77
2022/02/17 01:53:10;;;;;;;11.75;2.28;;;10.10;90.70;;;;;;5097013;28;20035;-77
2022/02/17 01:55:38;;;;;;;9.40;2.40;;;10.20;90.50;;;;;;5096124;28;20044;-78
2022/02/17 01:58:04;;;;;;;7.05;1.80;;;10.40;90.40;;;;;;5064048;28;20069;-76
2022/02/17 02:00:32;;;;;;;10.63;2.60;;;10.40;90.30;;;;;;5115565;28;20073;-78
2022/02/17 02:02:59;;;;;;;13.13;3.03;;;10.50;90.30;;;;;;5097070;28;20032;-77
2022/02/17 02:05:25;;;;;;;12.23;2.92;;;10.60;90.10;;;;;;5096494;28;20036;-77
2022/02/17 02:07:51;;;;;;;11.95;2.97;;;10.80;90.00;;;;;;5080480;28;20412;-78
2022/02/17 02:10:17;;;;;;;13.15;3.75;;;10.80;89.90;;;;;;5095398;28;20042;-77
2022/02/17 02:12:42;;;;;;;14.07;3.15;;;10.80;89.80;;;;;;5079828;28;20032;-77
2022/02/17 02:15:08;;;;;;;14.80;3.75;;;10.80;89.60;;;;;;5115624;28;20035;-77
2022/02/17 02:17:34;;;;;;;14.80;3.70;;;11.00;89.40;;;;;;5115700;28;20047;-78
2022/02/17 02:20:03;;;;;;;13.75;3.63;;;11.00;89.30;;;;;;5079829;28;20397;-77
2022/02/17 02:22:30;;;;;;;11.48;2.92;;;11.10;89.20;;;;;;5114980;28;20469;-77
2022/02/17 02:24:59;;;;;;;15.43;3.45;;;11.00;89.00;;;;;;5096646;28;20114;-77
2022/02/17 02:27:26;;;;;;;11.80;3.30;;;11.00;88.80;;;;;;5115402;28;20554;-77
2022/02/17 02:29:52;;;;;;;14.82;3.30;;;11.00;88.80;;;;;;5095502;28;20040;-77
2022/02/17 02:32:17;;;;;;;18.35;3.78;;;11.00;88.80;;;;;;5097208;28;20147;-77
2022/02/17 02:34:43;;;;;;;15.32;3.30;;;10.90;88.70;;;;;;5097264;28;20130;-78
2022/02/17 02:37:09;;;;;;;12.40;2.90;;;10.80;88.60;;;;;;5097294;28;20042;-77
2022/02/17 02:39:36;;;;;;;16.00;3.67;;;10.90;88.60;;;;;;5079744;28;20039;-77
2022/02/17 02:42:03;;;;;;;17.50;3.60;;;10.80;88.40;;;;;;5115195;28;20047;-77
2022/02/17 02:44:30;;;;;;;17.52;4.35;;;10.90;88.00;;;;;;5115057;28;20855;-77
2022/02/17 02:46:56;;;;;;;14.70;3.00;;;10.90;87.60;;;;;;5115036;28;20042;-78
2022/02/17 02:49:22;;;;;;;12.02;2.90;;;10.90;87.50;;;;;;5097444;28;20132;-77
2022/02/17 02:51:49;;;;;;;10.77;2.75;;;10.80;87.50;;;;;;5115357;28;20036;-76
2022/02/17 02:54:15;;;;;;;14.40;3.00;;;10.80;87.40;;;;;;5115194;28;20506;-76
2022/02/17 02:56:42;;;;;;;12.25;2.97;;;10.70;87.30;;;;;;5115428;28;20063;-77
2022/02/17 02:59:08;;;;;;;11.90;3.65;;;10.80;87.30;;;;;;5096519;28;20520;-76
2022/02/17 03:01:34;;;;;;;13.43;2.97;;;10.70;87.30;;;;;;5080443;28;20400;-77
2022/02/17 03:04:00;;;;;;;10.98;2.90;;;10.70;87.30;;;;;;5115201;28;20046;-77
2022/02/17 03:06:29;;;;;;;11.73;3.00;;;10.70;87.20;;;;;;5079544;28;20050;-77
2022/02/17 03:08:56;;;;;;;19.50;3.70;;;10.70;87.20;;;;;;5114805;28;20039;-77
2022/02/17 03:11:22;;;;;;;16.17;3.67;;;10.60;86.90;;;;;;5110773;28;20047;-77
2022/02/17 03:13:48;;;;;;;16.38;3.90;;;10.70;86.80;;;;;;5096069;28;20051;-76
2022/02/17 03:16:16;;;;;;;14.23;3.25;;;10.60;86.50;;;;;;5114138;28;20051;-77
2022/02/17 03:18:41;;;;;;;15.70;3.63;;;10.60;86.30;;;;;;5094416;28;20040;-77
2022/02/17 03:21:08;;;;;;;16.20;3.55;;;10.60;86.10;;;;;;5114110;28;20047;-76
2022/02/17 03:23:34;;;;;;;15.88;3.63;;;10.60;85.80;;;;;;5095786;28;20051;-78
2022/02/17 03:26:00;;;;;;;10.25;3.05;;;10.50;85.30;;;;;;5114125;28;20036;-77
2022/02/17 03:28:26;;;;;;;9.38;1.92;;;10.60;85.00;;;;;;5095708;28;20051;-77
2022/02/17 03:30:54;;;;;;;12.38;2.78;;;10.60;84.80;;;;;;5114426;28;20477;-77
2022/02/17 03:33:21;;;;;;;12.13;2.60;;;10.50;84.50;;;;;;5114184;28;20055;-77
2022/02/17 03:35:47;;;;;;;11.02;2.78;;;10.40;83.80;;;;;;5096306;28;20048;-76
2022/02/17 03:38:15;;;;;;;12.18;2.75;;;10.40;83.20;;;;;;5095929;28;20039;-76
2022/02/17 03:40:41;;;;;;;10.57;2.40;;;10.40;82.90;;;;;;5114044;28;20085;-77
2022/02/17 03:43:07;;;;;;;12.25;2.58;;;10.30;82.70;;;;;;5095681;28;20044;-76
2022/02/17 03:45:33;;;;;;;12.93;2.70;;;10.30;82.40;;;;;;5114442;28;20123;-76
2022/02/17 03:47:59;;;;;;;10.52;2.58;;;10.30;81.60;;;;;;5113951;28;20119;-77
2022/02/17 03:50:25;;;;;;;9.93;2.25;;;10.20;81.30;;;;;;5095910;28;20035;-77
2022/02/17 03:52:50;;;;;;;9.48;2.50;;;10.20;81.20;;;;;;5095366;28;20036;-76
2022/02/17 03:55:17;;;;;;;10.75;2.70;;;10.10;81.00;;;;;;5113920;28;20085;-76
2022/02/17 03:57:45;;;;;;;10.57;2.83;;;10.00;81.00;;;;;;5095744;28;20043;-76
2022/02/17 04:00:11;;;;;;;7.60;2.10;;;10.00;80.50;;;;;;5113746;28;20059;-76
2022/02/17 04:02:37;;;;;;;7.18;2.15;;;10.00;80.30;;;;;;5094786;28;20105;-76
2022/02/17 04:05:04;;;;;;;11.68;2.90;;;10.00;80.40;;;;;;5078387;28;20497;-78
2022/02/17 04:07:30;;;;;;;10.38;2.00;;;10.00;80.20;;;;;;5094585;28;20063;-77
2022/02/17 04:09:56;;;;;;;9.15;2.13;;;10.00;80.00;;;;;;5113473;28;20135;-76
2022/02/17 04:12:22;;;;;;;9.20;2.40;;;10.00;80.00;;;;;;5113214;28;20556;-77
2022/02/17 04:14:47;;;;;;;11.23;2.40;;;10.10;79.80;;;;;;5095042;28;20047;-76
2022/02/17 04:17:14;;;;;;;15.27;3.28;;;10.00;79.60;;;;;;5078402;28;20043;-76
2022/02/17 04:19:39;;;;;;;10.15;2.40;;;10.10;79.30;;;;;;5113262;28;20044;-76
2022/02/17 04:22:08;;;;;;;10.32;1.88;;;10.00;79.10;;;;;;5113220;28;20040;-76
2022/02/17 04:24:33;;;;;;;10.20;2.53;;;10.10;79.20;;;;;;5113240;28;20058;-76
2022/02/17 04:26:59;;;;;;;10.77;2.58;;;10.10;79.20;;;;;;5094750;28;20477;-76
2022/02/17 04:29:25;;;;;;;10.77;2.20;;;10.10;79.10;;;;;;5094890;28;20501;-76
2022/02/17 04:31:51;;;;;;;10.07;2.47;;;10.10;79.00;;;;;;5093814;28;20060;-76
2022/02/17 04:34:17;;;;;;;14.52;2.78;;;10.10;78.90;;;;;;5094849;28;20485;-76
2022/02/17 04:36:43;;;;;;;8.65;2.60;;;10.20;79.10;;;;;;5094512;28;20122;-75
2022/02/17 04:39:09;;;;;;;9.70;2.10;;;10.20;79.10;;;;;;5112976;28;20043;-76
2022/02/17 04:44:11;;;;;;;9.18;2.25;;;10.10;79.60;;;;;;5112556;28;20044;-76
2022/02/17 04:46:37;;;;;;;10.80;2.65;;;10.00;79.60;;;;;;5095100;28;20044;-75
2022/02/17 04:49:03;;;;;;;11.13;2.85;;;10.10;79.80;;;;;;5112792;28;20046;-76
2022/02/17 04:51:29;;;;;;;6.38;2.03;;;10.10;79.90;;;;;;5077723;28;20123;-75
2022/02/17 04:53:54;;;;;;;10.38;2.40;;;10.00;80.00;;;;;;5076498;28;20036;-75
2022/02/17 04:56:20;;;;;;;10.55;2.10;;;10.10;80.20;;;;;;5112721;28;20495;-76
2022/02/17 04:58:46;;;;;;;13.20;2.88;;;10.00;80.30;;;;;;5112644;28;20140;-76
2022/02/17 05:01:12;;;;;;;8.93;3.03;;;10.10;80.30;;;;;;5094236;28;20047;-76
2022/02/17 05:03:38;;;;;;;10.52;2.90;;;10.10;80.20;;;;;;5113309;28;20126;-76
2022/02/17 05:06:04;;;;;;;9.38;2.47;;;10.00;79.50;;;;;;5092470;28;20452;-76
2022/02/17 05:08:30;;;;;;;8.45;2.70;;;10.00;79.50;;;;;;5077838;28;20138;-76
2022/02/17 05:10:56;;;;;;;14.18;2.33;;;10.10;79.60;;;;;;5112784;28;20044;-76
2022/02/17 05:13:21;;;;;;;12.02;2.80;;;10.10;79.10;;;;;;5092733;28;20554;-76
2022/02/17 05:15:47;;;;;;;9.48;2.78;;;10.00;79.00;;;;;;5113209;28;20093;-76
2022/02/17 05:18:13;;;;;;;10.68;2.50;;;10.00;79.00;;;;;;5094271;28;20043;-76
2022/02/17 05:20:39;;;;;;;9.48;2.60;;;10.00;79.10;;;;;;5097601;28;20080;-75
2022/02/17 05:23:05;;;;;;;11.93;2.60;;;10.00;79.00;;;;;;5116498;28;20481;-75
2022/02/17 05:25:31;;;;;;;13.98;2.75;;;10.00;78.80;;;;;;5098558;28;20419;-75
2022/02/17 05:27:58;;;;;;;9.73;2.35;;;10.00;78.80;;;;;;5097908;28;20043;-76
2022/02/17 05:30:23;;;;;;;10.25;3.15;;;10.00;78.90;;;;;;5081053;28;20062;-75
2022/02/17 05:32:49;;;;;;;14.55;3.50;;;10.00;78.80;;;;;;5097888;28;20043;-75
2022/02/17 05:35:15;;;;;;;11.05;2.70;;;10.00;78.70;;;;;;5115930;28;20074;-76
2022/02/17 05:37:41;;;;;;;13.52;2.50;;;10.00;78.90;;;;;;5115681;28;20043;-76
2022/02/17 05:40:10;;;;;;;10.40;2.45;;;10.00;79.00;;;;;;5080778;28;20040;-76
2022/02/17 05:42:36;;;;;;;8.23;2.40;;;9.90;79.30;;;;;;5115902;28;20066;-76
2022/02/17 05:45:04;;;;;;;13.85;2.50;;;9.70;79.70;;;;;;5079800;28;20036;-77
2022/02/17 05:47:29;;;;;;;11.82;2.50;;;9.50;80.10;;;;;;5096429;28;20048;-76
2022/02/17 05:49:55;;;;;;;7.93;1.92;;;9.10;81.00;;;;;;5115565;28;20046;-76
2022/02/17 05:52:21;;;;;;;10.23;1.88;;;8.70;82.20;;;;;;5115608;28;20040;-75
2022/02/17 05:54:47;;;;;;;8.00;1.80;;;8.40;83.30;;;;;;5115436;28;20039;-75
2022/02/17 05:57:13;;;;;;;6.85;1.65;;;8.40;84.00;;;;;;5063671;28;20052;-75
2022/02/17 05:59:39;;;;;;;6.35;1.38;;;8.30;84.00;;;;;;5063658;28;20102;-76
2022/02/17 06:02:06;;;;;;;7.45;1.38;;;8.20;84.00;;;;;;5096993;28;20493;-77
2022/02/17 06:04:32;;;;;;;5.68;1.20;;;8.20;84.00;;;;;;5062657;28;20044;-76
2022/02/17 06:06:57;;;;;;;5.38;1.30;;;8.20;84.10;;;;;;5115303;28;20481;-77
2022/02/17 06:09:23;;;;;;;6.78;1.58;;;8.20;84.10;;;;;;5080528;28;20042;-77
2022/02/17 06:11:49;;;;;;;8.48;1.70;;;8.10;84.20;;;;;;5115213;28;20143;-77
2022/02/17 06:14:15;;;;;;;5.80;1.50;;;8.10;84.30;;;;;;5080188;28;20389;-76
2022/02/17 06:16:41;;;;;;;8.45;1.50;;;8.10;84.30;;;;;;5097102;28;20040;-77
2022/02/17 06:19:07;;;;;;;8.00;1.77;;;8.20;84.20;;;;;;5096992;28;20054;-77
2022/02/17 06:21:32;;;;;;;6.72;1.70;;;8.20;84.00;;;;;;5115283;28;20035;-76
2022/02/17 06:23:58;;;;;;;9.15;1.88;;;8.20;83.80;;;;;;5063427;28;20036;-77
2022/02/17 06:26:24;;;;;;;7.85;1.92;;;8.30;83.50;;;;;;5080195;28;20063;-76
2022/02/17 06:28:50;;;;;;;5.70;1.50;;;8.40;83.30;;;;;;5097065;28;20096;-76
2022/02/17 06:31:18;;;;;;;8.27;2.05;;;8.40;83.10;;;;;;5094769;28;20040;-76
2022/02/17 06:33:44;;;;;;;9.15;2.10;;;8.40;83.10;;;;;;5097337;28;20043;-77
2022/02/17 06:36:15;;;;;;;6.53;2.17;;;8.40;83.00;;;;;;5115081;28;20102;-76
2022/02/17 06:38:41;;;;;;;8.10;1.90;;;8.50;82.90;;;;;;5096304;28;20078;-77
2022/02/17 06:41:07;;;;;;;8.85;2.00;;;8.60;82.50;;;;;;5097280;28;20044;-76
2022/02/17 06:43:36;;;;;;;10.60;2.47;;;8.60;82.40;;;;;;5097197;28;20092;-77
2022/02/17 06:46:03;;;;;;;8.13;1.83;;;8.60;82.10;;;;;;5095552;28;20036;-76
2022/02/17 06:48:29;;;;;;;8.18;2.13;;;8.80;81.60;;;;;;5079941;28;20050;-77
2022/02/17 06:50:57;;;;;;;5.53;1.27;;;8.70;81.30;;;;;;5114897;28;20059;-76
2022/02/17 06:53:23;;;;;;;7.75;1.75;;;8.70;81.20;;;;;;5079044;28;20040;-76
2022/02/17 06:55:49;;;;;;;8.20;2.03;;;8.70;80.90;;;;;;5096786;28;20393;-77
2022/02/17 06:58:16;;;;;;;11.88;2.00;;;8.80;80.70;;;;;;5115110;28;20035;-76
2022/02/17 07:00:42;;;;;;;8.35;1.98;;;8.90;80.40;;;;;;5114926;28;20032;-79
2022/02/17 07:03:07;;;;;;;7.47;2.40;;;8.80;80.10;;;;;;5115439;28;20046;-77
2022/02/17 07:05:33;;;;;;;7.95;2.05;;;8.80;79.80;;;;;;5096969;28;20036;-76
2022/02/17 07:07:59;;;;;;;9.32;1.98;;;8.80;79.60;;;;;;5115164;28;20510;-76
2022/02/17 07:13:06;;;;;;;8.32;1.95;;;8.80;79.50;;;;;;5098771;28;20499;-76
2022/02/17 07:15:35;;;;;;;7.32;1.88;;;8.90;79.30;;;;;;5096392;28;20127;-76
2022/02/17 07:18:04;;;;;;;7.63;1.70;;;8.80;78.90;;;;;;5114759;28;20085;-77
2022/02/17 07:20:30;;;;;;;7.43;1.77;;;8.80;78.80;;;;;;5097037;28;20049;-77
2022/02/17 07:22:57;;;;;;;5.28;1.70;;;8.80;78.60;;;;;;5097011;28;20079;-75
2022/02/17 07:25:23;;;;;;;6.15;1.30;;;8.80;78.50;;;;;;5106368;28;20043;-76
2022/02/17 07:27:48;;;;;;;3.13;1.00;;;8.80;78.50;;;;;;5097380;28;20039;-76
2022/02/17 07:30:14;;;;;;;4.53;1.40;;;8.80;78.40;;;;;;5114180;28;20524;-75
2022/02/17 07:32:41;;;;;;;6.85;1.50;;;8.80;78.00;;;;;;5079657;28;20444;-77
2022/02/17 07:35:07;;;;;;;9.88;1.80;;;8.90;77.60;;;;;;5114182;28;20040;-76
2022/02/17 07:37:33;;;;;;;4.70;1.40;;;8.80;77.40;;;;;;5113941;28;20122;-76
2022/02/17 07:39:59;;;;;;;5.30;1.10;;;8.80;77.30;;;;;;5094664;28;20051;-75
2022/02/17 07:42:25;;;;;;;4.22;1.38;;;8.60;77.60;;;;;;5093199;28;20043;-75
2022/02/17 07:44:56;;;;;;;7.63;1.75;;;8.50;78.20;;;;;;5093920;28;20043;-76
2022/02/17 07:47:23;;;;;;;5.00;1.70;;;8.40;78.70;;;;;;5079840;28;20038;-76
2022/02/17 07:49:49;;;;;;;7.07;1.67;;;8.40;79.10;;;;;;5114123;28;20070;-75
2022/02/17 07:52:15;;;;;;;8.20;1.73;;;8.30;79.30;;;;;;5114219;28;20039;-76
2022/02/17 07:54:41;;;;;;;7.05;1.40;;;8.30;79.40;;;;;;5096114;28;20492;-76
2022/02/17 07:57:07;;;;;;;7.53;2.00;;;8.30;79.60;;;;;;5074725;28;20051;-75
2022/02/17 07:59:33;;;;;;;7.22;1.58;;;8.30;79.80;;;;;;5095375;28;20047;-77
2022/02/17 08:01:58;;;;;;;8.80;1.67;;;8.30;79.90;;;;;;5114054;28;20126;-76
2022/02/17 08:04:24;;;;;;;5.88;1.67;;;8.40;79.90;;;;;;5078516;28;20154;-75
2022/02/17 08:06:50;;;;;;;6.90;1.55;;;8.40;79.70;;;;;;5113590;28;20040;-76
2022/02/17 08:09:16;;;;;;;3.45;1.15;;;8.50;79.50;;;;;;5095381;28;20047;-75
2022/02/17 08:11:41;;;;;;;5.43;1.52;;;8.60;79.30;;;;;;5114148;28;20040;-75
2022/02/17 08:14:07;;;;;;;6.72;1.13;;;8.80;79.00;;;;;;5113959;28;20411;-75
2022/02/17 08:16:33;;;;;;;4.90;1.45;;;9.00;78.60;;;;;;5113755;28;20408;-75
2022/02/17 08:18:59;;;;;;;7.07;1.40;;;8.80;78.10;;;;;;5113588;28;20143;-75
2022/02/17 08:21:25;;;;;;;4.53;1.20;;;8.90;78.30;;;;;;5113404;28;20043;-75
2022/02/17 08:23:51;;;;;;;3.72;1.23;;;8.90;78.30;;;;;;5113606;28;20062;-75
2022/02/17 08:26:17;;;;;;;4.72;1.33;;;8.90;78.30;;;;;;5113336;28;20081;-75
2022/02/17 08:28:43;;;;;;;6.13;1.15;;;8.90;78.20;;;;;;5094864;28;20084;-77
2022/02/17 08:31:09;;;;;;;6.68;1.50;;;8.80;78.10;;;;;;5094956;28;20043;-78
2022/02/17 08:33:35;;;;;;;6.07;1.55;;;8.90;77.50;;;;;;5113543;28;20035;-77
2022/02/17 08:36:00;;;;;;;5.75;1.40;;;8.90;77.50;;;;;;5077972;28;20456;-76
2022/02/17 08:38:31;;;;;;;5.78;1.90;;;8.90;77.40;;;;;;5077816;28;20434;-77
2022/02/17 08:40:58;;;;;;;5.60;1.58;;;8.90;77.10;;;;;;5094804;28;20114;-76
2022/02/17 08:43:24;;;;;;;4.97;1.40;;;8.90;76.90;;;;;;5094700;28;20031;-76
2022/02/17 08:45:50;;;;;;;7.75;1.77;;;8.90;76.90;;;;;;5113279;28;20042;-76
2022/02/17 08:48:16;;;;;;;6.18;1.65;;;8.90;76.80;;;;;;5113632;28;20393;-74
2022/02/17 08:50:44;;;;;;;6.30;1.75;;;8.90;76.80;;;;;;5095560;28;20035;-75
2022/02/17 08:53:10;;;;;;;6.57;1.63;;;8.90;76.90;;;;;;5095048;28;20110;-75
2022/02/17 08:55:35;;;;;;;4.63;1.52;;;8.90;76.90;;;;;;5079179;28;20089;-75
2022/02/17 08:58:02;;;;;;;5.55;1.17;;;8.90;76.90;;;;;;5113025;28;20047;-75
2022/02/17 09:00:28;;;;;;;4.22;1.23;;;8.90;77.00;;;;;;5094645;28;20126;-75
2022/02/17 09:02:54;;;;;;;6.03;1.70;;;8.90;76.80;;;;;;5112761;28;20079;-75
2022/02/17 09:05:20;;;;;;;6.13;1.40;;;8.90;76.70;;;;;;5112837;28;20481;-75
2022/02/17 09:07:46;;;;;;;4.70;1.45;;;9.00;76.50;;;;;;5115846;28;20043;-76
2022/02/17 09:10:12;;;;;;;4.53;1.33;;;9.10;76.20;;;;;;5077759;28;20043;-75
2022/02/17 09:12:38;;;;;;;4.75;1.17;;;9.00;76.00;;;;;;5094285;28;20040;-74
2022/02/17 09:15:07;;;;;;;7.70;1.67;;;9.20;76.10;;;;;;5094404;28;20031;-75
2022/02/17 09:17:33;;;;;;;5.65;1.30;;;9.10;76.00;;;;;;5076093;28;20048;-75
2022/02/17 09:19:58;;;;;;;5.97;1.33;;;9.10;75.60;;;;;;5112459;28;20507;-75
2022/02/17 09:22:24;;;;;;;5.88;1.38;;;9.10;75.60;;;;;;5093385;28;20051;-75
2022/02/17 09:24:50;;;;;;;4.55;1.20;;;9.20;75.30;;;;;;5112623;28;20040;-75
2022/02/17 09:27:16;;;;;;;4.80;1.40;;;9.10;75.00;;;;;;5094242;28;20381;-74
2022/02/17 09:29:42;;;;;;;4.07;1.08;;;9.10;75.00;;;;;;5112564;28;20044;-77
2022/02/17 09:32:10;;;;;;;4.85;1.40;;;9.20;74.70;;;;;;5077525;28;20043;-75
2022/02/17 09:34:37;;;;;;;8.35;1.98;;;9.30;74.20;;;;;;5112267;28;20058;-74
2022/02/17 09:37:04;;;;;;;4.30;1.13;;;9.30;73.60;;;;;;5112463;28;20070;-77
2022/02/17 09:39:33;;;;;;;4.50;1.20;;;9.30;73.20;;;;;;5077203;28;20511;-77
2022/02/17 09:42:02;;;;;;;5.00;1.20;;;9.40;72.80;;;;;;5093664;28;20051;-76
2022/02/17 09:44:28;;;;;;;5.35;1.30;;;9.40;72.80;;;;;;5093897;28;20188;-75
2022/02/17 09:46:54;;;;;;;4.85;1.23;;;9.30;72.60;;;;;;5077217;28;20076;-76
2022/02/17 09:49:21;;;;;;;4.45;1.23;;;9.40;71.80;;;;;;5112062;28;20039;-75
2022/02/17 09:51:49;;;;;;;6.75;1.38;;;9.40;71.50;;;;;;5093732;28;20040;-75
2022/02/17 09:54:16;;;;;;;4.28;1.17;;;9.50;71.50;;;;;;5093409;28;20481;-76
2022/02/17 09:56:42;;;;;;;3.25;1.10;;;9.40;71.10;;;;;;5112009;28;20043;-75
2022/02/17 09:59:08;;;;;;;4.95;1.20;;;9.50;71.10;;;;;;5112634;28;20384;-76
2022/02/17 10:01:36;;;;;;;4.07;1.05;;;9.40;70.90;;;;;;5073020;28;20032;-75
2022/02/17 10:04:16;;;;;;;4.13;1.17;;;9.50;71.00;;;;;;5093902;28;20481;-76
2022/02/17 10:06:45;;;;;;;5.28;1.42;;;9.50;70.70;;;;;;5115505;28;20545;-76
2022/02/17 10:09:12;;;;;;;5.60;1.25;;;9.50;70.50;;;;;;5115928;28;20533;-76
2022/02/17 10:11:39;;;;;;;4.63;1.10;;;9.50;70.40;;;;;;5097222;28;20039;-75
2022/02/17 10:14:09;;;;;;;3.50;1.08;;;9.60;70.50;;;;;;5115901;28;20063;-75
2022/02/17 10:16:57;;;;;;;3.60;1.23;;;9.60;70.50;;;;;;5115785;28;20179;-75
2022/02/17 10:19:36;;;;;;;4.82;1.42;;;9.70;70.80;;;;;;5115011;28;20100;-75
2022/02/17 10:22:05;;;;;;;5.72;1.33;;;9.70;70.40;;;;;;5115142;28;20047;-75
2022/02/17 10:24:35;;;;;;;5.78;1.33;;;9.70;70.20;;;;;;5115115;28;20981;-75
2022/02/17 10:27:07;;;;;;;5.57;1.33;;;9.80;69.90;;;;;;5115005;28;20047;-74
2022/02/17 10:29:34;;;;;;;6.15;1.48;;;9.80;69.80;;;;;;5115372;28;20435;-75
2022/02/17 10:32:11;;;;;;;6.35;1.45;;;9.80;70.00;;;;;;5079096;28;20115;-75
2022/02/17 10:34:39;;;;;;;4.00;0.98;;;9.90;70.10;;;;;;5114920;28;20056;-76
2022/02/17 10:37:07;;;;;;;4.72;1.20;;;10.00;70.30;;;;;;5096991;28;20039;-76
2022/02/17 10:39:36;;;;;;;3.67;1.20;;;10.00;70.30;;;;;;5114768;28;20160;-75
2022/02/17 10:42:09;;;;;;;3.63;1.13;;;9.90;70.00;;;;;;5062865;28;20036;-78
2022/02/17 10:44:39;;;;;;;8.15;1.70;;;9.80;69.60;;;;;;5097358;28;20481;-76
2022/02/17 10:47:19;;;;;;;4.78;1.30;;;9.80;69.20;;;;;;5096030;28;20056;-74
2022/02/17 10:49:50;;;;;;;7.32;1.40;;;9.70;69.10;;;;;;5095205;28;20044;-75
2022/02/17 10:52:28;;;;;;;2.45;1.02;;;9.70;69.20;;;;;;5097308;28;20043;-76
2022/02/17 10:55:11;;;;;;;5.05;1.33;;;9.80;69.20;;;;;;5096442;28;20040;-75
2022/02/17 10:57:38;;;;;;;4.22;1.20;;;9.80;69.00;;;;;;5114509;28;20043;-75
2022/02/17 11:00:16;;;;;;;5.28;1.60;;;9.90;68.60;;;;;;5114833;28;20091;-76
2022/02/17 11:02:42;;;;;;;3.33;1.10;;;9.90;68.40;;;;;;5094484;28;20443;-75
2022/02/17 11:05:11;;;;;;;4.93;1.10;;;10.00;68.20;;;;;;5114933;28;20134;-75
2022/02/17 11:07:39;;;;;;;3.30;1.00;;;10.00;68.10;;;;;;5114184;28;20047;-75
2022/02/17 11:10:07;;;;;;;3.47;1.20;;;10.10;67.90;;;;;;5114180;28;20065;-75
2022/02/17 11:12:33;;;;;;;5.88;1.40;;;10.10;67.60;;;;;;5114170;28;20079;-74
2022/02/17 11:15:00;;;;;;;5.10;1.25;;;10.10;67.50;;;;;;5096512;28;20103;-75
2022/02/17 11:17:27;;;;;;;4.18;0.88;;;10.10;67.40;;;;;;5114223;28;20554;-74
2022/02/17 11:19:54;;;;;;;3.97;1.05;;;10.10;67.30;;;;;;5095766;28;20446;-74
2022/02/17 11:22:21;;;;;;;5.75;1.05;;;10.10;68.10;;;;;;5114566;28;20067;-73
2022/02/17 11:24:51;;;;;;;3.88;1.00;;;10.10;67.30;;;;;;5095980;28;20106;-75
2022/02/17 11:27:18;;;;;;;3.50;0.93;;;10.20;67.60;;;;;;5114324;28;20530;-75
2022/02/17 11:29:45;;;;;;;4.75;1.30;;;10.20;67.30;;;;;;5113949;28;20100;-75
2022/02/17 11:32:16;;;;;;;4.05;1.30;;;10.30;67.40;;;;;;5114103;28;20097;-76
2022/02/17 11:34:46;;;;;;;5.35;1.50;;;10.30;66.80;;;;;;5095929;28;20035;-74
2022/02/17 11:37:39;;;;;;;3.60;1.13;;;10.30;66.70;;;;;;5113682;28;20464;-75
2022/02/17 11:40:14;;;;;;;4.18;1.00;;;10.30;66.80;;;;;;5095466;28;20035;-75
2022/02/17 11:42:45;;;;;;;4.75;1.10;;;10.30;66.70;;;;;;5114003;28;20080;-75
2022/02/17 11:45:21;;;;;;;7.30;1.30;;;10.40;66.80;;;;;;5114063;28;20035;-75
2022/02/17 11:48:09;;;;;;;3.50;1.17;;;10.40;66.80;;;;;;5113644;28;20278;-75
2022/02/17 11:50:43;;;;;;;4.65;1.33;;;10.50;66.70;;;;;;5114104;28;20433;-75
2022/02/17 11:53:30;;;;;;;3.25;1.00;;;10.50;66.80;;;;;;5113659;28;20047;-75
2022/02/17 11:56:31;;;;;;;3.65;1.30;;;10.60;66.80;;;;;;5095157;28;20048;-75
2022/02/17 11:58:57;;;;;;;4.72;1.27;;;10.80;66.80;;;;;;5114058;28;20039;-74
2022/02/17 12:01:39;;;;;;;5.03;1.42;;;10.90;66.40;;;;;;5095219;28;20046;-75
2022/02/17 12:04:17;;;;;;;6.65;1.40;;;10.90;66.20;;;;;;5113906;28;20038;-74
2022/02/17 12:06:49;;;;;;;3.85;1.13;;;10.80;66.20;;;;;;5113807;28;20489;-75
2022/02/17 12:09:32;;;;;;;4.32;1.02;;;10.90;66.00;;;;;;5095508;28;20084;-75
2022/02/17 12:12:38;;;;;;;7.72;1.20;;;11.00;66.30;;;;;;5113905;28;20031;-75
2022/02/17 12:15:06;;;;;;;4.93;1.33;;;11.00;66.30;;;;;;5098599;28;20048;-75
2022/02/17 12:17:37;;;;;;;5.43;1.40;;;11.00;65.70;;;;;;5095261;28;20035;-75
2022/02/17 12:20:08;;;;;;;4.75;1.20;;;11.10;65.80;;;;;;5095543;28;20042;-75
2022/02/17 12:22:34;;;;;;;4.70;1.38;;;11.30;65.80;;;;;;5113315;28;20040;-75
2022/02/17 12:25:21;;;;;;;4.28;1.38;;;11.30;65.30;;;;;;5113087;28;20044;-75
2022/02/17 12:27:50;;;;;;;6.28;1.38;;;11.20;65.40;;;;;;5094338;28;20067;-75
2022/02/17 12:30:27;;;;;;;3.40;1.15;;;11.10;65.30;;;;;;5112555;28;20480;-74
2022/02/17 12:33:09;;;;;;;5.95;1.40;;;11.00;65.70;;;;;;5113104;28;20405;-74
2022/02/17 12:35:36;;;;;;;6.47;1.48;;;10.90;65.40;;;;;;5093139;28;20051;-74
2022/02/17 12:38:09;;;;;;;6.18;1.40;;;10.70;65.90;;;;;;5113014;28;20190;-73
2022/02/17 12:40:37;;;;;;;6.07;1.60;;;10.60;66.10;;;;;;5091388;28;20058;-73
2022/02/17 12:43:04;;;;;;;5.25;1.40;;;10.50;66.50;;;;;;5078010;28;20039;-73
2022/02/17 12:45:32;;;;;;;4.25;1.10;;;10.60;66.60;;;;;;5113301;28;20032;-74
2022/02/17 12:48:00;;;;;;;4.88;1.35;;;10.70;66.30;;;;;;5113085;28;20130;-73
2022/02/17 12:50:26;;;;;;;4.50;1.00;;;10.80;66.10;;;;;;5113248;28;20047;-75
2022/02/17 12:52:51;;;;;;;5.10;1.35;;;10.60;66.00;;;;;;5113344;28;20494;-74
2022/02/17 12:55:17;;;;;;;6.15;1.45;;;10.60;65.80;;;;;;5113298;28;20092;-73